Time;durP1;ratioP1;P1;durP2;ratioP2;P2;SDS_P1;SDS_P2;PMS_P1;PMS_P2;Temp;Humidity;BMP_temperature;BMP_pressure;BME280_temperature;BME280_humidity;BME280_pressure;Samples;Min_cycle;Max_cycle;Signal;HPM_P1;HPM_P2
2021/12/09 00:00:31;;;;;;;56.37;23.03;;;;;;;-2.45;100.00;99703.59;5000794;28;20239;-71
2021/12/09 00:03:05;;;;;;;50.53;22.43;;;;;;;-2.47;100.00;99705.28;5003161;28;20208;-72
2021/12/09 00:05:31;;;;;;;53.90;23.10;;;;;;;-2.46;100.00;99696.81;5003093;28;21022;-73
2021/12/09 00:07:58;;;;;;;60.20;26.80;;;;;;;-2.48;100.00;99694.22;5006392;28;20207;-73
2021/12/09 00:10:25;;;;;;;52.70;23.43;;;;;;;-2.47;100.00;99700.19;5003122;28;20262;-72
2021/12/09 00:12:51;;;;;;;59.03;25.63;;;;;;;-2.46;100.00;99689.16;5006062;28;20207;-73
2021/12/09 00:15:17;;;;;;;60.53;26.53;;;;;;;-2.47;100.00;99692.53;5018768;28;20738;-73
2021/12/09 00:17:45;;;;;;;57.10;25.83;;;;;;;-2.47;100.00;99695.06;5006901;28;20215;-72
2021/12/09 00:20:13;;;;;;;59.90;23.43;;;;;;;-2.49;100.00;99682.28;5004409;28;20232;-72
2021/12/09 00:22:40;;;;;;;57.43;24.40;;;;;;;-2.48;100.00;99684.03;5004667;28;20204;-72
2021/12/09 00:25:07;;;;;;;50.37;22.63;;;;;;;-2.47;100.00;99677.22;5002892;28;20390;-73
2021/12/09 00:27:33;;;;;;;53.90;23.57;;;;;;;-2.49;100.00;99684.00;5005467;28;20203;-72
2021/12/09 00:30:00;;;;;;;53.43;24.00;;;;;;;-2.49;100.00;99684.00;5002038;28;20220;-72
2021/12/09 00:32:26;;;;;;;50.13;22.60;;;;;;;-2.48;100.00;99694.22;5003895;28;20209;-73
2021/12/09 00:34:54;;;;;;;58.97;24.60;;;;;;;-2.49;100.00;99687.41;5005521;28;20673;-72
2021/12/09 00:37:26;;;;;;;49.83;21.77;;;;;;;-2.46;100.00;99691.69;5007507;28;20228;-73
2021/12/09 00:39:54;;;;;;;52.03;22.77;;;;;;;-2.48;100.00;99684.03;5006543;28;20274;-73
2021/12/09 00:42:22;;;;;;;50.57;22.10;;;;;;;-2.48;100.00;99681.47;5003435;28;20208;-71
2021/12/09 00:44:49;;;;;;;55.80;22.60;;;;;;;-2.47;100.00;99672.94;5005809;28;20401;-73
2021/12/09 00:47:15;;;;;;;53.07;22.90;;;;;;;-2.48;100.00;99678.91;5004072;28;20208;-71
2021/12/09 00:49:42;;;;;;;55.83;22.70;;;;;;;-2.45;100.00;99690.84;5004489;28;20239;-73
2021/12/09 00:52:10;;;;;;;52.30;21.30;;;;;;;-2.47;100.00;99683.16;5008922;28;20209;-73
2021/12/09 00:54:38;;;;;;;50.63;21.97;;;;;;;-2.47;100.00;99687.41;5002513;28;20200;-73
2021/12/09 00:57:05;;;;;;;55.60;22.83;;;;;;;-2.47;100.00;99685.72;5003252;28;20228;-73
2021/12/09 00:59:32;;;;;;;50.70;21.03;;;;;;;-2.46;100.00;99678.94;5005969;28;20225;-73
2021/12/09 01:01:58;;;;;;;48.07;21.33;;;;;;;-2.47;100.00;99684.88;5006018;28;20970;-71
2021/12/09 01:04:25;;;;;;;52.10;24.00;;;;;;;-2.45;100.00;99687.44;5005393;28;20580;-73
2021/12/09 01:06:52;;;;;;;47.57;22.60;;;;;;;-2.45;100.00;99687.44;5005901;28;20701;-72
2021/12/09 01:09:20;;;;;;;50.23;22.40;;;;;;;-2.44;100.00;99691.72;5007014;28;20287;-73
2021/12/09 01:11:47;;;;;;;50.83;22.90;;;;;;;-2.45;100.00;99695.94;5001344;28;20201;-73
2021/12/09 01:14:13;;;;;;;55.33;23.20;;;;;;;-2.45;100.00;99687.44;5004540;28;20544;-72
2021/12/09 01:16:40;;;;;;;53.57;22.73;;;;;;;-2.44;100.00;99689.16;5002540;28;20219;-71
2021/12/09 01:19:07;;;;;;;45.30;20.10;;;;;;;-2.43;100.00;99698.53;5005337;28;20228;-73
2021/12/09 01:21:33;;;;;;;45.13;20.50;;;;;;;-2.44;100.00;99694.28;5003917;28;20205;-72
2021/12/09 01:24:00;;;;;;;49.93;22.10;;;;;;;-2.42;100.00;99707.91;5001894;28;20593;-71
2021/12/09 01:26:29;;;;;;;49.13;21.03;;;;;;;-2.40;100.00;99708.78;5004190;28;20201;-73
2021/12/09 01:28:59;;;;;;;51.77;22.53;;;;;;;-2.42;100.00;99701.09;5002464;28;20232;-72
2021/12/09 01:31:30;;;;;;;51.57;21.93;;;;;;;-2.40;100.00;99703.66;5002600;28;20259;-73
2021/12/09 01:34:01;;;;;;;49.97;21.70;;;;;;;-2.39;100.00;99701.13;5004936;28;20696;-73
2021/12/09 01:36:28;;;;;;;51.67;22.20;;;;;;;-2.40;100.00;99696.00;5006874;28;20216;-72
2021/12/09 01:38:55;;;;;;;48.67;21.73;;;;;;;-2.38;100.00;99704.53;5001784;28;20228;-71
2021/12/09 01:41:21;;;;;;;53.27;21.70;;;;;;;-2.40;100.00;99711.34;5004983;28;20217;-72
2021/12/09 01:43:50;;;;;;;51.20;22.63;;;;;;;-2.39;100.00;99705.38;5002284;28;20208;-73
2021/12/09 01:46:20;;;;;;;53.43;21.43;;;;;;;-2.37;100.00;99708.81;5003418;28;20892;-72
2021/12/09 01:48:48;;;;;;;52.60;21.40;;;;;;;-2.38;100.00;99699.44;5003153;28;20733;-73
2021/12/09 01:51:16;;;;;;;48.30;22.03;;;;;;;-2.39;100.00;99697.72;5003977;28;20215;-71
2021/12/09 01:53:43;;;;;;;49.77;22.33;;;;;;;-2.38;100.00;99695.16;5001477;28;20248;-72
2021/12/09 01:56:12;;;;;;;53.40;21.80;;;;;;;-2.39;100.00;99701.13;5004806;28;20207;-73
2021/12/09 01:58:39;;;;;;;50.40;22.93;;;;;;;-2.39;100.00;99710.47;5002749;28;20225;-73
2021/12/09 02:01:07;;;;;;;51.97;23.10;;;;;;;-2.38;100.00;99705.38;4999596;28;20213;-73
2021/12/09 02:03:35;;;;;;;52.87;23.67;;;;;;;-2.36;100.00;99707.97;5001797;28;20221;-70
2021/12/09 02:06:02;;;;;;;49.37;21.23;;;;;;;-2.35;100.00;99717.34;5005233;28;20695;-73
2021/12/09 02:08:28;;;;;;;51.40;22.43;;;;;;;-2.36;100.00;99720.72;5000010;28;20221;-71
2021/12/09 02:10:55;;;;;;;49.40;21.97;;;;;;;-2.40;100.00;99717.28;5003203;28;20712;-73
2021/12/09 02:13:21;;;;;;;47.63;21.20;;;;;;;-2.36;100.00;99720.72;5000829;28;20610;-72
2021/12/09 02:15:51;;;;;;;49.83;21.97;;;;;;;-2.36;100.00;99718.19;5003805;28;20229;-72
2021/12/09 02:18:21;;;;;;;53.03;21.17;;;;;;;-2.36;100.00;99718.19;5002393;28;20722;-73
2021/12/09 02:21:05;;;;;;;50.00;21.43;;;;;;;-2.36;100.00;99716.47;5002408;28;20202;-72
2021/12/09 02:23:32;;;;;;;47.43;21.00;;;;;;;-2.36;100.00;99720.72;5003620;28;20720;-72
2021/12/09 02:25:58;;;;;;;50.17;20.93;;;;;;;-2.35;100.00;99722.47;4998685;28;20205;-73
2021/12/09 02:28:26;;;;;;;53.83;22.60;;;;;;;-2.35;100.00;99719.91;5003975;28;20220;-73
2021/12/09 02:30:52;;;;;;;51.60;21.87;;;;;;;-2.38;100.00;99719.84;5001184;28;20205;-73
2021/12/09 02:33:19;;;;;;;49.90;21.60;;;;;;;-2.37;100.00;99714.78;5005605;28;20777;-73
2021/12/09 02:35:45;;;;;;;48.63;20.87;;;;;;;-2.38;100.00;99720.72;5003884;28;20212;-73
2021/12/09 02:38:13;;;;;;;50.57;21.80;;;;;;;-2.38;100.00;99714.75;5004846;28;20224;-73
2021/12/09 02:40:40;;;;;;;56.63;22.00;;;;;;;-2.36;100.00;99718.19;5002491;28;20224;-72
2021/12/09 02:43:08;;;;;;;52.30;22.43;;;;;;;-2.37;100.00;99717.31;5003630;28;20208;-73
2021/12/09 02:45:35;;;;;;;48.50;21.40;;;;;;;-2.38;100.00;99720.72;5003292;28;20327;-73
2021/12/09 02:48:01;;;;;;;46.67;19.93;;;;;;;-2.39;100.00;99716.47;5005640;28;20287;-73
2021/12/09 02:50:28;;;;;;;47.43;19.47;;;;;;;-2.37;100.00;99721.59;5001377;28;20223;-73
2021/12/09 02:52:54;;;;;;;51.57;22.50;;;;;;;-2.37;100.00;99719.88;5006444;28;20205;-73
2021/12/09 02:55:22;;;;;;;49.70;21.43;;;;;;;-2.36;100.00;99713.91;5000405;28;20209;-73
2021/12/09 02:57:52;;;;;;;51.97;22.20;;;;;;;-2.35;100.00;99717.34;5002194;28;20212;-72
2021/12/09 03:00:20;;;;;;;45.27;20.90;;;;;;;-2.35;100.00;99713.09;5001715;28;20228;-71
2021/12/09 03:02:47;;;;;;;49.23;21.93;;;;;;;-2.34;100.00;99716.50;4998948;28;20211;-73
2021/12/09 03:05:14;;;;;;;50.17;22.13;;;;;;;-2.36;100.00;99711.38;5002770;28;20235;-72
2021/12/09 03:07:42;;;;;;;50.27;21.23;;;;;;;-2.36;100.00;99713.06;5004341;28;20239;-72
2021/12/09 03:10:18;;;;;;;49.37;22.67;;;;;;;-2.36;100.00;99718.19;5001874;28;20224;-73
2021/12/09 03:12:49;;;;;;;51.87;21.03;;;;;;;-2.37;100.00;99719.03;5002381;28;20234;-73
2021/12/09 03:15:16;;;;;;;50.40;20.93;;;;;;;-2.39;100.00;99713.03;5001776;28;20208;-73
2021/12/09 03:17:44;;;;;;;52.27;21.57;;;;;;;-2.39;100.00;99705.38;4998750;28;20677;-73
2021/12/09 03:20:13;;;;;;;54.97;22.87;;;;;;;-2.39;100.00;99703.69;5003056;28;20709;-73
2021/12/09 03:22:41;;;;;;;42.33;20.17;;;;;;;-2.39;100.00;99695.16;4999845;28;20741;-73
2021/12/09 03:25:10;;;;;;;46.97;21.17;;;;;;;-2.39;100.00;99690.94;5003474;28;20208;-72
2021/12/09 03:27:36;;;;;;;50.63;22.37;;;;;;;-2.39;100.00;99701.13;5001684;28;20219;-72
2021/12/09 03:30:07;;;;;;;47.20;20.70;;;;;;;-2.41;100.00;99695.16;5004545;28;20231;-73
2021/12/09 03:32:34;;;;;;;52.77;22.33;;;;;;;-2.41;100.00;99691.72;4997319;28;20841;-71
2021/12/09 03:35:01;;;;;;;47.67;21.00;;;;;;;-2.40;100.00;99691.75;5002729;28;20720;-73
2021/12/09 03:37:27;;;;;;;47.97;20.63;;;;;;;-2.39;100.00;99690.03;5002206;28;20208;-72
2021/12/09 03:39:55;;;;;;;50.37;21.77;;;;;;;-2.40;100.00;99681.53;5007676;28;20231;-73
2021/12/09 03:42:25;;;;;;;47.70;21.33;;;;;;;-2.37;100.00;99683.28;5004109;28;20578;-73
2021/12/09 03:44:53;;;;;;;46.20;21.00;;;;;;;-2.38;100.00;99697.72;5005980;28;20208;-73
2021/12/09 03:47:22;;;;;;;44.40;20.43;;;;;;;-2.36;100.00;99692.63;5006278;28;21007;-72
2021/12/09 03:49:49;;;;;;;48.80;20.37;;;;;;;-2.36;100.00;99688.38;5006615;28;20231;-73
2021/12/09 03:52:16;;;;;;;43.87;19.43;;;;;;;-2.36;100.00;99685.84;5005562;28;20212;-71
2021/12/09 03:54:44;;;;;;;49.03;20.77;;;;;;;-2.33;100.00;99695.25;5003142;28;20938;-72
2021/12/09 03:57:12;;;;;;;42.73;19.87;;;;;;;-2.38;100.00;99692.63;5006410;28;20216;-72
2021/12/09 03:59:40;;;;;;;48.70;20.73;;;;;;;-2.38;100.00;99702.00;5004746;28;20217;-73
2021/12/09 04:02:07;;;;;;;52.23;21.80;;;;;;;-2.35;100.00;99713.09;5006222;28;20200;-71
2021/12/09 04:04:34;;;;;;;44.47;19.83;;;;;;;-2.37;100.00;99712.22;5004456;28;20206;-70
2021/12/09 04:07:01;;;;;;;47.77;21.20;;;;;;;-2.35;100.00;99712.25;5007131;28;20209;-72
2021/12/09 04:09:28;;;;;;;48.37;21.03;;;;;;;-2.36;100.00;99713.06;5005431;28;20252;-71
2021/12/09 04:11:54;;;;;;;47.97;20.80;;;;;;;-2.38;100.00;99723.25;5006914;28;20213;-73
2021/12/09 04:14:22;;;;;;;48.53;22.13;;;;;;;-2.40;100.00;99737.72;5007944;28;20216;-72
2021/12/09 04:16:50;;;;;;;50.03;21.97;;;;;;;-2.38;100.00;99733.47;5004508;28;20676;-72
2021/12/09 04:19:17;;;;;;;50.70;21.87;;;;;;;-2.36;100.00;99733.50;5003601;28;20223;-72
2021/12/09 04:21:46;;;;;;;46.03;20.33;;;;;;;-2.35;100.00;99733.53;5007919;28;20200;-72
2021/12/09 04:24:15;;;;;;;52.17;21.23;;;;;;;-2.33;100.00;99731.00;5006356;28;20216;-71
2021/12/09 04:26:43;;;;;;;45.60;20.03;;;;;;;-2.37;100.00;99735.19;5006832;28;20205;-72
2021/12/09 04:29:11;;;;;;;53.73;21.60;;;;;;;-2.36;100.00;99725.84;5003478;28;20229;-73
2021/12/09 04:31:38;;;;;;;45.20;19.90;;;;;;;-2.36;100.00;99723.28;5004523;28;20204;-72
2021/12/09 04:34:05;;;;;;;50.47;22.00;;;;;;;-2.40;100.00;99713.88;5004270;28;20215;-72
2021/12/09 04:36:32;;;;;;;46.77;20.53;;;;;;;-2.39;100.00;99692.59;5007074;28;21538;-72
2021/12/09 04:39:00;;;;;;;54.00;20.47;;;;;;;-2.40;100.00;99683.25;5006025;28;20226;-71
2021/12/09 04:41:26;;;;;;;48.20;20.73;;;;;;;-2.42;100.00;99677.28;5006314;28;20189;-71
2021/12/09 04:43:53;;;;;;;51.30;20.07;;;;;;;-2.43;100.00;99691.72;5008302;28;20209;-71
2021/12/09 04:46:20;;;;;;;55.77;22.47;;;;;;;-2.45;100.00;99708.72;5005085;28;20307;-72
2021/12/09 04:48:47;;;;;;;52.23;21.33;;;;;;;-2.42;100.00;99720.66;5006543;28;20725;-70
2021/12/09 04:51:14;;;;;;;48.37;20.53;;;;;;;-2.39;100.00;99738.56;5005187;28;20264;-73
2021/12/09 04:53:41;;;;;;;45.97;20.00;;;;;;;-2.37;100.00;99750.53;5005656;28;20707;-70
2021/12/09 04:56:09;;;;;;;47.73;20.17;;;;;;;-2.37;100.00;99755.63;5002688;28;20336;-72
2021/12/09 04:58:35;;;;;;;52.03;22.07;;;;;;;-2.38;100.00;99741.13;5007234;28;20228;-72
2021/12/09 05:01:05;;;;;;;52.30;22.60;;;;;;;-2.38;100.00;99735.19;5007159;28;20204;-72
2021/12/09 05:03:31;;;;;;;44.13;19.93;;;;;;;-2.38;100.00;99735.19;5005922;28;20872;-73
2021/12/09 05:05:58;;;;;;;45.70;20.83;;;;;;;-2.41;100.00;99727.47;5007321;28;20203;-72
2021/12/09 05:08:28;;;;;;;45.20;20.27;;;;;;;-2.41;100.00;99719.81;5005254;28;20263;-72
2021/12/09 05:11:03;;;;;;;46.57;19.77;;;;;;;-2.42;100.00;99695.13;5005332;28;20299;-71
2021/12/09 05:13:33;;;;;;;43.60;19.70;;;;;;;-2.45;100.00;99690.00;5006838;28;20196;-72
2021/12/09 05:16:01;;;;;;;46.53;20.17;;;;;;;-2.40;100.00;99736.88;5001189;28;20212;-72
2021/12/09 05:18:29;;;;;;;50.20;20.80;;;;;;;-2.43;100.00;99760.63;5006146;28;20639;-73
2021/12/09 05:20:57;;;;;;;45.00;20.83;;;;;;;-2.41;100.00;99753.88;5007557;28;21399;-72
2021/12/09 05:23:24;;;;;;;49.40;21.53;;;;;;;-2.41;100.00;99753.00;5026453;28;20204;-72
2021/12/09 05:25:51;;;;;;;52.90;22.40;;;;;;;-2.41;100.00;99751.34;5025205;28;20200;-72
2021/12/09 05:28:18;;;;;;;48.60;21.07;;;;;;;-2.42;100.00;99738.53;5026339;28;20192;-72
2021/12/09 05:33:34;;;;;;;48.27;20.80;;;;;;;-2.38;100.00;99763.25;5021130;28;20204;-70
2021/12/09 05:36:01;;;;;;;49.63;21.37;;;;;;;-2.41;100.00;99751.34;5023862;28;20223;-72
2021/12/09 05:38:27;;;;;;;45.73;20.63;;;;;;;-2.38;100.00;99770.94;5019726;28;20220;-72
2021/12/09 05:40:54;;;;;;;49.33;23.07;;;;;;;-2.39;100.00;99761.53;5025289;28;20208;-72
2021/12/09 05:43:21;;;;;;;49.07;22.27;;;;;;;-2.40;100.00;99741.97;5016654;28;20208;-73
2021/12/09 05:45:50;;;;;;;49.13;21.60;;;;;;;-2.42;100.00;99761.53;5020427;28;20204;-73
2021/12/09 05:48:17;;;;;;;49.43;21.67;;;;;;;-2.45;100.00;99729.13;5019202;28;20585;-71
2021/12/09 05:50:44;;;;;;;46.27;20.50;;;;;;;-2.45;100.00;99715.53;5019681;28;20208;-71
2021/12/09 05:53:11;;;;;;;49.60;20.07;;;;;;;-2.46;100.00;99737.66;5019654;28;20212;-70
2021/12/09 05:55:38;;;;;;;49.67;21.53;;;;;;;-2.46;100.00;99732.53;5021115;28;20200;-71
2021/12/09 05:58:04;;;;;;;50.87;20.50;;;;;;;-2.47;100.00;99752.09;5019814;28;20870;-72
2021/12/09 06:00:31;;;;;;;49.67;21.87;;;;;;;-2.49;100.00;99746.13;5019827;28;20581;-70
2021/12/09 06:02:59;;;;;;;43.03;19.87;;;;;;;-2.47;100.00;99746.97;5017516;28;20580;-72
2021/12/09 06:05:25;;;;;;;47.67;20.63;;;;;;;-2.47;100.00;99748.69;5019714;28;20223;-72
2021/12/09 06:07:52;;;;;;;43.73;20.07;;;;;;;-2.46;100.00;99742.75;5020851;28;20195;-72
2021/12/09 06:10:18;;;;;;;48.47;21.53;;;;;;;-2.48;100.00;99760.59;5020462;28;20223;-72
2021/12/09 06:12:45;;;;;;;52.93;22.07;;;;;;;-2.47;100.00;99767.41;5019632;28;20558;-72
2021/12/09 06:15:11;;;;;;;49.30;21.70;;;;;;;-2.46;100.00;99765.72;5021584;28;20295;-72
2021/12/09 06:17:38;;;;;;;41.07;19.60;;;;;;;-2.45;100.00;99767.44;5018983;28;20208;-72
2021/12/09 06:20:07;;;;;;;53.93;21.37;;;;;;;-2.44;100.00;99763.19;5020979;28;20211;-70
2021/12/09 06:22:34;;;;;;;51.73;21.20;;;;;;;-2.42;100.00;99751.31;5019913;28;20204;-70
2021/12/09 06:25:00;;;;;;;45.83;20.00;;;;;;;-2.44;100.00;99732.56;5021184;28;20735;-70
2021/12/09 06:27:27;;;;;;;50.53;21.13;;;;;;;-2.45;100.00;99726.59;5019478;28;20196;-71
2021/12/09 06:29:53;;;;;;;46.67;21.20;;;;;;;-2.50;100.00;99711.22;5023815;28;22089;-72
2021/12/09 06:32:20;;;;;;;48.23;21.97;;;;;;;-2.50;100.00;99718.88;5026302;28;20690;-72
2021/12/09 06:34:46;;;;;;;52.40;22.20;;;;;;;-2.47;100.00;99741.03;5025108;28;20246;-72
2021/12/09 06:37:14;;;;;;;48.87;20.80;;;;;;;-2.46;100.00;99745.31;5023558;28;20443;-73
2021/12/09 06:39:41;;;;;;;46.50;22.17;;;;;;;-2.46;100.00;99740.19;5019585;28;20231;-73
2021/12/09 06:42:08;;;;;;;50.27;21.33;;;;;;;-2.50;100.00;99713.78;5024429;28;20192;-71
2021/12/09 06:44:35;;;;;;;51.63;21.13;;;;;;;-2.51;100.00;99711.22;5022964;28;20270;-72
2021/12/09 06:47:01;;;;;;;49.50;22.77;;;;;;;-2.48;100.00;99708.66;5024672;28;20858;-71
2021/12/09 06:49:28;;;;;;;54.17;22.47;;;;;;;-2.49;100.00;99702.72;5025010;28;20575;-72
2021/12/09 06:51:54;;;;;;;46.83;21.63;;;;;;;-2.49;100.00;99738.44;5022327;28;20207;-72
2021/12/09 06:54:22;;;;;;;49.87;21.83;;;;;;;-2.51;100.00;99737.59;5024126;28;20565;-72
2021/12/09 06:56:48;;;;;;;52.20;20.93;;;;;;;-2.50;100.00;99741.88;5020775;28;20200;-73
2021/12/09 06:59:15;;;;;;;45.37;20.20;;;;;;;-2.44;100.00;99763.19;5014521;28;20219;-72
2021/12/09 07:01:41;;;;;;;48.47;20.97;;;;;;;-2.45;100.00;99733.41;5013400;28;20203;-70
2021/12/09 07:04:09;;;;;;;53.17;23.90;;;;;;;-2.47;100.00;99736.78;5016715;28;21165;-72
2021/12/09 07:06:35;;;;;;;56.90;23.20;;;;;;;-2.44;100.00;99768.31;5015230;28;20204;-71
2021/12/09 07:09:03;;;;;;;49.40;21.07;;;;;;;-2.41;100.00;99787.06;5014573;28;20567;-71
2021/12/09 07:11:32;;;;;;;46.60;22.33;;;;;;;-2.43;100.00;99770.00;5012572;28;20200;-72
2021/12/09 07:13:59;;;;;;;50.33;22.07;;;;;;;-2.43;100.00;99785.31;5018591;28;20736;-73
2021/12/09 07:16:26;;;;;;;53.53;21.90;;;;;;;-2.39;100.00;99797.28;5021238;28;20706;-72
2021/12/09 07:18:52;;;;;;;46.17;20.40;;;;;;;-2.37;100.00;99798.19;5026607;28;20223;-70
2021/12/09 07:21:19;;;;;;;46.03;20.83;;;;;;;-2.37;100.00;99793.94;5025631;28;20931;-72
2021/12/09 07:23:45;;;;;;;46.87;21.67;;;;;;;-2.37;100.00;99804.13;5024972;28;20204;-72
2021/12/09 07:26:11;;;;;;;50.33;21.33;;;;;;;-2.35;100.00;99816.94;5025761;28;20204;-71
2021/12/09 07:28:39;;;;;;;54.27;23.50;;;;;;;-2.38;100.00;99819.44;5025787;28;20223;-72
2021/12/09 07:31:06;;;;;;;48.07;21.30;;;;;;;-2.37;100.00;99811.81;5026217;28;20207;-72
2021/12/09 07:33:32;;;;;;;51.13;22.00;;;;;;;-2.42;100.00;99794.72;5029980;28;20200;-71
2021/12/09 07:35:58;;;;;;;51.43;21.60;;;;;;;-2.42;100.00;99803.22;5025016;28;20228;-73
2021/12/09 07:38:25;;;;;;;51.57;21.53;;;;;;;-2.37;100.00;99795.63;5028362;28;20800;-73
2021/12/09 07:40:52;;;;;;;48.63;21.20;;;;;;;-2.40;100.00;99806.66;5026900;28;20210;-72
2021/12/09 07:43:18;;;;;;;52.73;23.93;;;;;;;-2.39;100.00;99792.19;5029769;28;20204;-73
2021/12/09 07:45:46;;;;;;;51.40;22.87;;;;;;;-2.38;100.00;99801.56;5027319;28;20685;-74
2021/12/09 07:48:13;;;;;;;53.20;22.63;;;;;;;-2.35;100.00;99815.22;5029516;28;20199;-74
2021/12/09 07:50:39;;;;;;;51.77;22.40;;;;;;;-2.31;100.00;99818.69;5028919;28;20205;-73
2021/12/09 07:53:06;;;;;;;51.97;23.37;;;;;;;-2.33;100.00;99821.22;5029975;28;20200;-71
2021/12/09 07:55:33;;;;;;;54.67;21.97;;;;;;;-2.30;100.00;99810.19;5027432;28;20546;-72
2021/12/09 07:58:00;;;;;;;58.27;22.73;;;;;;;-2.31;100.00;99798.25;5026514;28;20196;-72
2021/12/09 08:00:29;;;;;;;52.10;21.63;;;;;;;-2.32;100.00;99794.00;5026884;28;20227;-72
2021/12/09 08:02:59;;;;;;;47.03;20.93;;;;;;;-2.32;100.00;99766.75;5028503;28;20204;-71
2021/12/09 08:05:28;;;;;;;51.23;21.90;;;;;;;-2.39;100.00;99775.19;5025484;28;20192;-73
2021/12/09 08:07:55;;;;;;;47.97;21.33;;;;;;;-2.41;100.00;99769.19;5028982;28;20212;-72
2021/12/09 08:10:23;;;;;;;52.37;22.67;;;;;;;-2.44;100.00;99766.59;5027361;28;20698;-73
2021/12/09 08:12:50;;;;;;;54.27;23.03;;;;;;;-2.45;100.00;99766.59;5029102;28;20215;-70
2021/12/09 08:15:17;;;;;;;49.37;22.57;;;;;;;-2.45;100.00;99775.09;5027477;28;20592;-70
2021/12/09 08:18:01;;;;;;;51.20;22.33;;;;;;;-2.47;100.00;99753.78;5027044;28;20303;-73
2021/12/09 08:20:31;;;;;;;55.40;22.23;;;;;;;-2.42;100.00;99756.41;5029006;28;20227;-72
2021/12/09 08:22:58;;;;;;;53.53;23.83;;;;;;;-2.45;100.00;99746.16;5027066;28;20207;-72
2021/12/09 08:25:25;;;;;;;55.30;22.70;;;;;;;-2.45;100.00;99749.56;5030590;28;20838;-71
2021/12/09 08:27:52;;;;;;;50.53;23.00;;;;;;;-2.43;100.00;99747.03;5024809;28;20203;-71
2021/12/09 08:30:21;;;;;;;50.53;23.67;;;;;;;-2.38;100.00;99755.59;5024902;28;20220;-72
2021/12/09 08:32:48;;;;;;;57.33;24.10;;;;;;;-2.36;100.00;99761.59;5023958;28;20199;-72
2021/12/09 08:35:16;;;;;;;51.53;22.93;;;;;;;-2.37;100.00;99782.88;5028488;28;20208;-72
2021/12/09 08:37:45;;;;;;;51.30;22.53;;;;;;;-2.38;100.00;99771.78;5025096;28;20212;-72
2021/12/09 08:40:14;;;;;;;57.37;23.60;;;;;;;-2.42;100.00;99764.91;5031278;28;20218;-71
2021/12/09 08:42:40;;;;;;;71.77;29.67;;;;;;;-2.34;100.00;99765.00;5027363;28;20700;-72
2021/12/09 08:45:10;;;;;;;53.97;23.47;;;;;;;-2.31;100.00;99765.91;5028192;28;20204;-73
2021/12/09 08:47:37;;;;;;;53.67;23.30;;;;;;;-2.28;100.00;99790.63;5027485;28;20273;-71
2021/12/09 08:50:05;;;;;;;54.47;23.73;;;;;;;-2.32;100.00;99781.22;5027539;28;20223;-71
2021/12/09 08:52:32;;;;;;;57.43;24.17;;;;;;;-2.28;100.00;99780.41;5025380;28;20208;-72
2021/12/09 08:55:00;;;;;;;58.13;23.17;;;;;;;-2.22;100.00;99779.63;5026922;28;20230;-72
2021/12/09 08:57:26;;;;;;;56.10;24.23;;;;;;;-2.25;100.00;99780.47;5026179;28;20195;-72
2021/12/09 08:59:53;;;;;;;51.47;22.57;;;;;;;-2.26;100.00;99791.50;5026987;28;20231;-71
2021/12/09 09:02:20;;;;;;;50.70;22.57;;;;;;;-2.28;100.00;99781.28;5027122;28;20207;-71
2021/12/09 09:04:47;;;;;;;57.00;25.40;;;;;;;-2.29;100.00;99789.78;5027246;28;20526;-72
2021/12/09 09:07:13;;;;;;;59.77;25.47;;;;;;;-2.23;100.00;99793.22;5024611;28;20680;-71
2021/12/09 09:09:41;;;;;;;55.20;23.83;;;;;;;-2.22;100.00;99795.81;5024719;28;20239;-73
2021/12/09 09:12:11;;;;;;;59.70;23.90;;;;;;;-2.16;100.00;99805.25;5026042;28;20284;-72
2021/12/09 09:14:38;;;;;;;58.77;22.63;;;;;;;-2.14;100.00;99798.47;5025565;28;20800;-72
2021/12/09 09:17:05;;;;;;;56.77;24.37;;;;;;;-2.14;100.00;99801.88;5025302;28;20551;-72
2021/12/09 09:19:31;;;;;;;58.57;24.97;;;;;;;-2.14;100.00;99801.03;5025581;28;20223;-72
2021/12/09 09:21:58;;;;;;;61.30;24.80;;;;;;;-2.16;100.00;99818.03;5033408;28;20208;-72
2021/12/09 09:24:24;;;;;;;51.87;23.30;;;;;;;-2.07;100.00;99805.38;5025421;28;20704;-72
2021/12/09 09:26:50;;;;;;;56.40;24.47;;;;;;;-2.10;100.00;99785.72;5025778;28;20200;-71
2021/12/09 09:29:19;;;;;;;61.67;25.30;;;;;;;-2.06;100.00;99798.56;5024668;28;20230;-73
2021/12/09 09:31:46;;;;;;;57.87;25.03;;;;;;;-2.05;100.00;99800.28;5027738;28;20204;-72
2021/12/09 09:34:13;;;;;;;56.10;25.23;;;;;;;-2.02;100.00;99790.06;5024216;28;20196;-72
2021/12/09 09:36:44;;;;;;;63.83;25.90;;;;;;;-2.00;100.00;99788.41;5025184;28;20200;-72
2021/12/09 09:39:17;;;;;;;55.03;24.70;;;;;;;-1.98;100.00;99792.69;5024817;28;20211;-73
2021/12/09 09:41:45;;;;;;;71.63;33.07;;;;;;;-1.97;100.00;99796.97;5026193;28;20250;-70
2021/12/09 09:44:14;;;;;;;57.73;24.33;;;;;;;-2.04;100.00;99797.75;5026159;28;20212;-71
2021/12/09 09:46:42;;;;;;;60.83;26.00;;;;;;;-2.05;100.00;99793.47;5025311;28;20239;-72
2021/12/09 09:49:10;;;;;;;58.50;24.57;;;;;;;-2.05;100.00;99790.06;5025474;28;20261;-72
2021/12/09 09:51:38;;;;;;;52.80;24.23;;;;;;;-1.98;100.00;99797.81;5023498;28;20208;-73
2021/12/09 09:54:06;;;;;;;57.80;23.80;;;;;;;-1.94;100.00;99799.53;5025599;28;20208;-73
2021/12/09 09:56:34;;;;;;;62.17;25.13;;;;;;;-1.96;100.00;99791.00;5024963;28;20203;-71
2021/12/09 09:59:05;;;;;;;58.07;25.73;;;;;;;-1.94;100.00;99796.13;5026433;28;20232;-73
2021/12/09 10:01:33;;;;;;;57.87;25.37;;;;;;;-1.91;100.00;99791.91;5026728;28;20204;-74
2021/12/09 10:04:11;;;;;;;64.23;25.97;;;;;;;-1.86;100.00;99776.66;5030600;28;20657;-74
2021/12/09 10:06:39;;;;;;;56.50;25.13;;;;;;;-1.89;100.00;99781.72;5022553;28;20270;-73
2021/12/09 10:09:07;;;;;;;55.37;24.63;;;;;;;-1.93;100.00;99792.75;5025559;28;20303;-73
2021/12/09 10:11:34;;;;;;;60.33;25.43;;;;;;;-1.86;100.00;99783.47;5022098;28;20215;-72
2021/12/09 10:14:11;;;;;;;56.73;24.87;;;;;;;-1.85;100.00;99795.38;5026669;28;20226;-72
2021/12/09 10:16:39;;;;;;;57.37;24.63;;;;;;;-1.75;100.00;99804.88;5024733;28;20211;-72
2021/12/09 10:19:16;;;;;;;59.10;25.80;;;;;;;-1.73;100.00;99791.25;5025738;28;20254;-73
2021/12/09 10:21:43;;;;;;;54.37;23.93;;;;;;;-1.69;100.00;99804.06;5023960;28;20208;-73
2021/12/09 10:24:10;;;;;;;56.83;24.50;;;;;;;-1.70;100.00;99804.94;5022824;28;20684;-73
2021/12/09 10:26:39;;;;;;;60.73;26.00;;;;;;;-1.64;100.00;99787.94;5021958;28;20572;-73
2021/12/09 10:29:10;;;;;;;60.73;26.10;;;;;;;-1.63;100.00;99786.25;5025701;28;20258;-73
2021/12/09 10:31:43;;;;;;;52.20;24.07;;;;;;;-1.63;100.00;99799.03;5024266;28;20247;-72
2021/12/09 10:34:20;;;;;;;58.23;24.37;;;;;;;-1.67;100.00;99785.38;5025175;28;20196;-73
2021/12/09 10:37:06;;;;;;;59.27;25.20;;;;;;;-1.60;100.00;99776.03;5025206;28;20192;-73
2021/12/09 10:39:39;;;;;;;59.43;24.77;;;;;;;-1.55;100.00;99789.72;5026437;28;20231;-72
2021/12/09 10:42:10;;;;;;;54.00;24.60;;;;;;;-1.48;100.00;99791.50;5025982;28;20661;-72
2021/12/09 10:44:42;;;;;;;74.53;30.37;;;;;;;-1.47;100.00;99795.78;5022777;28;20212;-73
2021/12/09 10:47:13;;;;;;;63.43;26.37;;;;;;;-1.46;100.00;99791.50;5024577;28;20192;-73
2021/12/09 10:49:53;;;;;;;62.07;26.27;;;;;;;-1.57;100.00;99799.09;5022158;28;20687;-73
2021/12/09 10:52:29;;;;;;;61.43;25.63;;;;;;;-1.56;100.00;99788.03;5025484;28;20403;-73
2021/12/09 10:54:56;;;;;;;58.93;26.60;;;;;;;-1.61;100.00;99774.34;5024352;28;20204;-72
2021/12/09 10:57:31;;;;;;;57.77;25.30;;;;;;;-1.62;100.00;99764.94;5024314;28;20207;-72
2021/12/09 11:00:14;;;;;;;54.60;23.67;;;;;;;-1.54;100.00;99765.88;5022251;28;20231;-72
2021/12/09 11:02:57;;;;;;;57.17;25.30;;;;;;;-1.54;100.00;99750.53;5022253;28;20204;-72
2021/12/09 11:05:25;;;;;;;61.30;27.30;;;;;;;-1.44;100.00;99742.13;5025780;28;20238;-72
2021/12/09 11:07:51;;;;;;;59.77;25.17;;;;;;;-1.45;100.00;99744.66;5023795;28;20204;-75
2021/12/09 11:10:23;;;;;;;63.37;26.07;;;;;;;-1.47;100.00;99731.00;5025165;28;20220;-72
2021/12/09 11:12:51;;;;;;;54.40;24.43;;;;;;;-1.49;100.00;99720.75;5021757;28;20207;-72
2021/12/09 11:15:19;;;;;;;62.10;25.80;;;;;;;-1.53;100.00;99721.56;5021703;28;20234;-73